Time;durP1;ratioP1;P1;durP2;ratioP2;P2;SDS_P1;SDS_P2;PMS_P1;PMS_P2;Temp;Humidity;BMP_temperature;BMP_pressure;BME280_temperature;BME280_humidity;BME280_pressure;Samples;Min_cycle;Max_cycle;Signal;HPM_P1;HPM_P2
2022/03/23 00:01:24;;;;;;;22.17;15.30;;;;;;;;;;5043557;28;20628;-70
2022/03/23 00:03:50;;;;;;;19.13;14.05;;;;;;;;;;5061631;28;20083;-70
2022/03/23 00:06:17;;;;;;;20.25;14.55;;;;;;;;;;5043893;28;20788;-70
2022/03/23 00:08:43;;;;;;;20.13;14.90;;;;;;;;;;5062109;28;20044;-70
2022/03/23 00:11:09;;;;;;;22.17;15.15;;;;;;;;;;5060809;28;20049;-70
2022/03/23 00:13:36;;;;;;;18.40;14.50;;;;;;;;;;5062273;28;20055;-70
2022/03/23 00:16:02;;;;;;;21.70;14.60;;;;;;;;;;5045632;28;20596;-70
2022/03/23 00:18:28;;;;;;;19.33;14.38;;;;;;;;;;5060966;28;20040;-70
2022/03/23 00:20:54;;;;;;;18.33;13.93;;;;;;;;;;5062337;28;20699;-70
2022/03/23 00:23:20;;;;;;;18.58;14.18;;;;;;;;;;5043955;28;20040;-70
2022/03/23 00:25:46;;;;;;;17.80;13.73;;;;;;;;;;5062164;28;20048;-70
2022/03/23 00:28:13;;;;;;;18.83;14.68;;;;;;;;;;5044267;28;20120;-70
2022/03/23 00:30:39;;;;;;;17.63;13.82;;;;;;;;;;5062976;28;20056;-70
2022/03/23 00:33:05;;;;;;;18.38;14.35;;;;;;;;;;5059895;28;20509;-70
2022/03/23 00:35:32;;;;;;;18.92;14.70;;;;;;;;;;5061238;28;20135;-70
2022/03/23 00:37:58;;;;;;;19.48;13.85;;;;;;;;;;5060006;28;20127;-70
2022/03/23 00:40:28;;;;;;;18.67;14.10;;;;;;;;;;5060214;28;20195;-70
2022/03/23 00:43:01;;;;;;;18.75;13.60;;;;;;;;;;5060568;28;20048;-70
2022/03/23 00:45:30;;;;;;;18.85;14.20;;;;;;;;;;5045654;28;20140;-70
2022/03/23 00:47:57;;;;;;;18.80;13.68;;;;;;;;;;5054636;28;20493;-70
2022/03/23 00:50:23;;;;;;;18.23;13.57;;;;;;;;;;5045277;28;20072;-70
2022/03/23 00:52:49;;;;;;;20.23;14.07;;;;;;;;;;5060427;28;20074;-70
2022/03/23 00:55:16;;;;;;;18.00;13.93;;;;;;;;;;5061014;28;20044;-70
2022/03/23 00:57:42;;;;;;;19.20;14.07;;;;;;;;;;5043867;28;20045;-70
2022/03/23 01:00:12;;;;;;;17.45;13.88;;;;;;;;;;5061975;28;20581;-70
2022/03/23 01:02:38;;;;;;;17.70;12.95;;;;;;;;;;5059744;28;20049;-70
2022/03/23 01:05:04;;;;;;;18.33;14.00;;;;;;;;;;5061424;28;20036;-70
2022/03/23 01:07:30;;;;;;;18.67;13.88;;;;;;;;;;5060499;28;20036;-70
2022/03/23 01:09:56;;;;;;;17.45;13.57;;;;;;;;;;5061379;28;20075;-70
2022/03/23 01:12:22;;;;;;;21.13;14.75;;;;;;;;;;5056318;28;20601;-70
2022/03/23 01:14:49;;;;;;;17.05;13.02;;;;;;;;;;5045219;28;20489;-70
2022/03/23 01:17:15;;;;;;;20.47;14.20;;;;;;;;;;5060105;28;20044;-70
2022/03/23 01:19:41;;;;;;;18.42;13.35;;;;;;;;;;5064475;28;20819;-70
2022/03/23 01:22:07;;;;;;;20.38;13.90;;;;;;;;;;5063868;28;20068;-70
2022/03/23 01:24:33;;;;;;;16.88;13.55;;;;;;;;;;5064524;28;20036;-70
2022/03/23 01:27:01;;;;;;;19.83;14.27;;;;;;;;;;5062936;28;20047;-70
2022/03/23 01:29:27;;;;;;;18.45;14.00;;;;;;;;;;5063174;28;20203;-70
2022/03/23 01:31:53;;;;;;;19.00;13.65;;;;;;;;;;5061972;28;20636;-70
2022/03/23 01:34:19;;;;;;;18.70;13.60;;;;;;;;;;5063209;28;20048;-70
2022/03/23 01:36:45;;;;;;;18.15;12.98;;;;;;;;;;5047466;28;20040;-70
2022/03/23 01:39:12;;;;;;;18.83;14.25;;;;;;;;;;5064886;28;20556;-70
2022/03/23 01:41:39;;;;;;;17.10;13.68;;;;;;;;;;5047073;28;20028;-70
2022/03/23 01:44:31;;;;;;;18.05;13.32;;;;;;;;;;5047697;28;20127;-70
2022/03/23 01:47:14;;;;;;;20.10;14.13;;;;;;;;;;5060296;28;20044;-70
2022/03/23 01:49:45;;;;;;;17.67;13.48;;;;;;;;;;5064540;28;20044;-70
2022/03/23 01:52:12;;;;;;;18.90;13.57;;;;;;;;;;5063291;28;20116;-70
2022/03/23 01:54:39;;;;;;;17.65;13.25;;;;;;;;;;5064201;28;20044;-70
2022/03/23 01:57:06;;;;;;;18.27;13.32;;;;;;;;;;5062767;28;20041;-70
2022/03/23 01:59:33;;;;;;;19.00;14.63;;;;;;;;;;5063887;28;20033;-70
2022/03/23 02:01:59;;;;;;;18.15;12.88;;;;;;;;;;5062367;28;20067;-70
2022/03/23 02:04:25;;;;;;;18.90;14.50;;;;;;;;;;5064336;28;20044;-70
2022/03/23 02:06:52;;;;;;;23.40;15.13;;;;;;;;;;5063446;28;20043;-70
2022/03/23 02:09:18;;;;;;;17.83;14.23;;;;;;;;;;5047774;28;20079;-70
2022/03/23 02:11:44;;;;;;;17.77;12.68;;;;;;;;;;5062870;28;20613;-70
2022/03/23 02:14:10;;;;;;;16.25;12.73;;;;;;;;;;5064256;28;20087;-70
2022/03/23 02:16:43;;;;;;;22.05;14.05;;;;;;;;;;5062417;28;20586;-70
2022/03/23 02:19:10;;;;;;;18.15;14.25;;;;;;;;;;5063954;28;20071;-71
2022/03/23 02:21:37;;;;;;;19.20;14.70;;;;;;;;;;5062529;28;20122;-70
2022/03/23 02:24:06;;;;;;;20.67;14.50;;;;;;;;;;5065181;28;20108;-70
2022/03/23 02:26:32;;;;;;;18.00;13.85;;;;;;;;;;5062857;28;20394;-70
2022/03/23 02:29:01;;;;;;;17.83;13.27;;;;;;;;;;5063488;28;20119;-70
2022/03/23 02:31:27;;;;;;;17.25;13.10;;;;;;;;;;5061849;28;20060;-70
2022/03/23 02:33:53;;;;;;;18.95;13.85;;;;;;;;;;5064049;28;20058;-70
2022/03/23 02:36:19;;;;;;;20.13;14.93;;;;;;;;;;5062596;28;20094;-70
2022/03/23 02:38:45;;;;;;;19.20;14.32;;;;;;;;;;5065096;28;20076;-70
2022/03/23 02:41:13;;;;;;;19.65;14.57;;;;;;;;;;5046534;28;20501;-70
2022/03/23 02:43:39;;;;;;;19.63;14.98;;;;;;;;;;5063562;28;20609;-70
2022/03/23 02:46:05;;;;;;;20.48;14.63;;;;;;;;;;5062730;28;20044;-70
2022/03/23 02:48:32;;;;;;;20.83;15.52;;;;;;;;;;5043392;28;20044;-70
2022/03/23 02:50:57;;;;;;;18.60;13.95;;;;;;;;;;5044087;28;20080;-70
2022/03/23 03:01:54;;;;;;;19.65;14.63;;;;;;;;;;5048357;28;20625;-70
2022/03/23 03:04:20;;;;;;;19.00;14.88;;;;;;;;;;5063099;28;20048;-70
2022/03/23 03:06:47;;;;;;;18.13;13.90;;;;;;;;;;5045808;28;20116;-70
2022/03/23 03:09:15;;;;;;;20.63;15.55;;;;;;;;;;5063097;28;20433;-70
2022/03/23 03:11:43;;;;;;;21.90;15.57;;;;;;;;;;5031919;28;20052;-70
2022/03/23 03:14:09;;;;;;;21.30;16.00;;;;;;;;;;5030658;28;20049;-70
2022/03/23 03:16:35;;;;;;;22.25;16.13;;;;;;;;;;5061639;28;20055;-70
2022/03/23 03:19:01;;;;;;;20.75;15.45;;;;;;;;;;5063059;28;20044;-70
2022/03/23 03:21:27;;;;;;;21.63;16.25;;;;;;;;;;5045112;28;20098;-70
2022/03/23 03:23:53;;;;;;;18.98;14.25;;;;;;;;;;5046254;28;20119;-70
2022/03/23 03:26:19;;;;;;;19.67;14.40;;;;;;;;;;5063368;28;20121;-70
2022/03/23 03:28:46;;;;;;;19.40;14.32;;;;;;;;;;5061899;28;20124;-70
2022/03/23 03:31:12;;;;;;;21.30;16.02;;;;;;;;;;5043878;28;20109;-70
2022/03/23 03:33:39;;;;;;;23.55;16.30;;;;;;;;;;5062193;28;20628;-70
2022/03/23 03:36:05;;;;;;;20.92;15.23;;;;;;;;;;5044468;28;20530;-70
2022/03/23 03:38:32;;;;;;;23.98;15.73;;;;;;;;;;5041538;28;20503;-70
2022/03/23 03:40:58;;;;;;;22.27;15.98;;;;;;;;;;5041731;28;20048;-70
2022/03/23 03:43:27;;;;;;;18.83;14.00;;;;;;;;;;5061046;28;20044;-70
2022/03/23 03:45:53;;;;;;;21.20;15.95;;;;;;;;;;5045601;28;20528;-70
2022/03/23 03:48:19;;;;;;;19.55;15.32;;;;;;;;;;5061051;28;20148;-70
2022/03/23 03:50:45;;;;;;;20.95;16.67;;;;;;;;;;5062066;28;20203;-70
2022/03/23 03:53:11;;;;;;;20.55;15.32;;;;;;;;;;5061488;28;20055;-70
2022/03/23 03:55:38;;;;;;;23.05;16.65;;;;;;;;;;5062428;28;20055;-70
2022/03/23 03:58:04;;;;;;;21.95;16.40;;;;;;;;;;5060812;28;20125;-70
2022/03/23 04:00:31;;;;;;;21.27;16.38;;;;;;;;;;5062302;28;20112;-70
2022/03/23 04:02:57;;;;;;;21.95;16.02;;;;;;;;;;5060448;28;20432;-70
2022/03/23 04:05:23;;;;;;;21.10;15.73;;;;;;;;;;5061938;28;20044;-70
2022/03/23 04:07:49;;;;;;;22.13;16.40;;;;;;;;;;5060824;28;20041;-70
2022/03/23 04:10:15;;;;;;;23.50;17.55;;;;;;;;;;5061953;28;20044;-70
2022/03/23 04:12:42;;;;;;;23.65;17.20;;;;;;;;;;5060268;28;20052;-70
2022/03/23 04:15:08;;;;;;;23.02;17.38;;;;;;;;;;5062083;28;20051;-70
2022/03/23 04:17:34;;;;;;;21.75;16.95;;;;;;;;;;5044158;28;20040;-70
2022/03/23 04:20:00;;;;;;;24.55;17.50;;;;;;;;;;5061829;28;20040;-70
2022/03/23 04:22:26;;;;;;;21.23;16.33;;;;;;;;;;5060712;28;20635;-70
2022/03/23 04:24:52;;;;;;;23.33;16.90;;;;;;;;;;5061092;28;20119;-70
2022/03/23 04:27:18;;;;;;;23.35;17.05;;;;;;;;;;5059880;28;20132;-70
2022/03/23 04:29:44;;;;;;;22.80;16.73;;;;;;;;;;5061862;28;20072;-70
2022/03/23 04:32:10;;;;;;;23.45;17.92;;;;;;;;;;5059609;28;20555;-70
2022/03/23 04:34:36;;;;;;;22.15;17.20;;;;;;;;;;5060591;28;20109;-70
2022/03/23 04:37:02;;;;;;;22.98;17.35;;;;;;;;;;5059857;28;20044;-70
2022/03/23 04:39:29;;;;;;;24.08;16.90;;;;;;;;;;5043416;28;20040;-70
2022/03/23 04:41:55;;;;;;;23.40;17.55;;;;;;;;;;5061617;28;20048;-70
2022/03/23 04:44:21;;;;;;;23.27;17.55;;;;;;;;;;5044433;28;20075;-70
2022/03/23 04:46:47;;;;;;;23.17;18.27;;;;;;;;;;5060910;28;20037;-70
2022/03/23 04:49:14;;;;;;;24.35;17.83;;;;;;;;;;5062751;28;20040;-70
2022/03/23 04:51:40;;;;;;;25.40;18.25;;;;;;;;;;5060405;28;20071;-70
2022/03/23 04:54:06;;;;;;;23.85;17.85;;;;;;;;;;5065204;28;20079;-70
2022/03/23 04:56:32;;;;;;;24.83;18.35;;;;;;;;;;5065424;28;20071;-70
2022/03/23 04:58:59;;;;;;;26.10;17.85;;;;;;;;;;5065003;28;20658;-70
2022/03/23 05:01:25;;;;;;;22.55;16.83;;;;;;;;;;5047047;28;20036;-70
2022/03/23 05:03:52;;;;;;;23.50;17.52;;;;;;;;;;5065377;28;20524;-70
2022/03/23 05:06:18;;;;;;;26.27;18.20;;;;;;;;;;5065556;28;20040;-70
2022/03/23 05:08:44;;;;;;;24.15;18.30;;;;;;;;;;5065040;28;20139;-70
2022/03/23 05:11:10;;;;;;;28.90;19.35;;;;;;;;;;5063711;28;20083;-70
2022/03/23 05:13:37;;;;;;;23.67;18.23;;;;;;;;;;5065254;28;20107;-70
2022/03/23 05:16:03;;;;;;;23.38;17.45;;;;;;;;;;5065225;28;20158;-69
2022/03/23 05:18:29;;;;;;;26.13;18.67;;;;;;;;;;5063648;28;20080;-70
2022/03/23 05:20:55;;;;;;;24.40;17.48;;;;;;;;;;5065234;28;20107;-70
2022/03/23 05:23:21;;;;;;;25.27;19.02;;;;;;;;;;5064222;28;20036;-70
2022/03/23 05:25:47;;;;;;;24.55;17.88;;;;;;;;;;5065330;28;20125;-70
2022/03/23 05:28:13;;;;;;;24.42;17.55;;;;;;;;;;5063497;28;20086;-70
2022/03/23 05:30:39;;;;;;;23.08;17.70;;;;;;;;;;5064842;28;20084;-70
2022/03/23 05:33:05;;;;;;;23.40;17.50;;;;;;;;;;5032759;28;20560;-70
2022/03/23 05:35:31;;;;;;;25.00;18.30;;;;;;;;;;5044251;28;20043;-70
2022/03/23 05:37:58;;;;;;;23.52;17.63;;;;;;;;;;5059406;28;20047;-70
2022/03/23 05:40:24;;;;;;;26.08;18.92;;;;;;;;;;5064253;28;20131;-70
2022/03/23 05:42:51;;;;;;;25.00;17.35;;;;;;;;;;5063217;28;20040;-70
2022/03/23 05:45:17;;;;;;;26.65;18.38;;;;;;;;;;5061331;28;20032;-70
2022/03/23 05:47:43;;;;;;;24.58;18.23;;;;;;;;;;5027161;28;20044;-70
2022/03/23 05:50:10;;;;;;;21.27;16.63;;;;;;;;;;5043368;28;20579;-70
2022/03/23 05:52:37;;;;;;;24.40;18.02;;;;;;;;;;5039908;28;20033;-70
2022/03/23 05:55:03;;;;;;;24.40;17.95;;;;;;;;;;5047963;28;20048;-70
2022/03/23 05:57:30;;;;;;;26.25;19.05;;;;;;;;;;5057911;28;20068;-70
2022/03/23 05:59:56;;;;;;;25.20;18.50;;;;;;;;;;5048083;28;20116;-70
2022/03/23 06:02:22;;;;;;;24.95;18.40;;;;;;;;;;5037296;28;20120;-70
2022/03/23 06:04:48;;;;;;;25.08;19.48;;;;;;;;;;5065010;28;20042;-70
2022/03/23 06:07:14;;;;;;;25.40;18.85;;;;;;;;;;5062875;28;20044;-71
2022/03/23 06:09:40;;;;;;;24.58;18.55;;;;;;;;;;5064299;28;20071;-70
2022/03/23 06:12:11;;;;;;;25.95;19.50;;;;;;;;;;5063595;28;20036;-70
2022/03/23 06:14:38;;;;;;;25.98;18.98;;;;;;;;;;5047324;28;20040;-70
2022/03/23 06:17:06;;;;;;;25.85;19.17;;;;;;;;;;5063713;28;20044;-70
2022/03/23 06:19:32;;;;;;;26.38;19.42;;;;;;;;;;5063844;28;20134;-70
2022/03/23 06:21:58;;;;;;;27.20;19.55;;;;;;;;;;5063993;28;20086;-70
2022/03/23 06:24:24;;;;;;;27.02;19.05;;;;;;;;;;5031779;28;20048;-72
2022/03/23 06:26:50;;;;;;;34.88;19.80;;;;;;;;;;5057072;28;20654;-71
2022/03/23 06:29:16;;;;;;;27.75;19.17;;;;;;;;;;5029370;28;20041;-70
2022/03/23 06:31:42;;;;;;;36.53;20.13;;;;;;;;;;5047673;28;20119;-71
2022/03/23 06:34:08;;;;;;;28.92;19.08;;;;;;;;;;5047560;28;20041;-69
2022/03/23 06:36:35;;;;;;;28.60;19.92;;;;;;;;;;5035906;28;20040;-69
2022/03/23 06:39:01;;;;;;;28.95;20.23;;;;;;;;;;5030402;28;20060;-71
2022/03/23 06:41:27;;;;;;;28.55;18.90;;;;;;;;;;5051417;28;20041;-71
2022/03/23 06:43:53;;;;;;;28.23;20.77;;;;;;;;;;5049407;28;20037;-72
2022/03/23 06:46:19;;;;;;;29.58;20.13;;;;;;;;;;5054036;28;20127;-72
2022/03/23 06:48:48;;;;;;;34.17;22.70;;;;;;;;;;5053254;28;20820;-72
2022/03/23 06:51:14;;;;;;;28.98;20.45;;;;;;;;;;5050385;28;20041;-72
2022/03/23 06:53:40;;;;;;;30.42;20.80;;;;;;;;;;5032911;28;20044;-71
2022/03/23 06:56:06;;;;;;;40.10;22.30;;;;;;;;;;5039811;28;20044;-72
2022/03/23 06:58:32;;;;;;;33.35;22.13;;;;;;;;;;5034496;28;20049;-73
2022/03/23 07:01:00;;;;;;;33.25;23.00;;;;;;;;;;5025393;28;20044;-73
2022/03/23 07:03:26;;;;;;;34.42;22.00;;;;;;;;;;5042468;28;20040;-72
2022/03/23 07:05:52;;;;;;;34.03;22.67;;;;;;;;;;5066589;28;20075;-72
2022/03/23 07:11:03;;;;;;;28.42;20.27;;;;;;;;;;5045763;28;20049;-73
2022/03/23 07:13:29;;;;;;;30.90;22.60;;;;;;;;;;5056469;28;20085;-72
2022/03/23 07:15:55;;;;;;;34.00;21.83;;;;;;;;;;5062119;28;20036;-73
2022/03/23 07:18:21;;;;;;;32.63;22.23;;;;;;;;;;5034686;28;20047;-72
2022/03/23 07:20:47;;;;;;;32.65;21.70;;;;;;;;;;5041980;28;20049;-72
2022/03/23 07:23:13;;;;;;;29.33;21.15;;;;;;;;;;5057720;28;20125;-72
2022/03/23 07:25:39;;;;;;;30.27;21.33;;;;;;;;;;5063494;28;20502;-72
2022/03/23 07:28:06;;;;;;;30.45;21.98;;;;;;;;;;5062087;28;20139;-72
2022/03/23 07:30:39;;;;;;;31.85;20.67;;;;;;;;;;5046774;28;20062;-72
2022/03/23 07:33:06;;;;;;;31.05;22.23;;;;;;;;;;5046182;28;20048;-72
2022/03/23 07:35:32;;;;;;;30.05;21.63;;;;;;;;;;5063102;28;20109;-74
2022/03/23 07:37:58;;;;;;;31.23;21.73;;;;;;;;;;5061524;28;20048;-72
2022/03/23 07:40:24;;;;;;;30.88;22.30;;;;;;;;;;5063438;28;20044;-72
2022/03/23 07:42:50;;;;;;;29.23;21.52;;;;;;;;;;5045558;28;20035;-72
2022/03/23 07:45:16;;;;;;;29.90;21.02;;;;;;;;;;5063086;28;20143;-72
2022/03/23 07:47:43;;;;;;;27.73;21.50;;;;;;;;;;5061257;28;20048;-72
2022/03/23 07:50:10;;;;;;;32.60;21.73;;;;;;;;;;5046560;28;20040;-72
2022/03/23 07:52:36;;;;;;;27.85;21.13;;;;;;;;;;5062224;28;20040;-72
2022/03/23 07:55:02;;;;;;;28.05;20.83;;;;;;;;;;5063136;28;20044;-72
2022/03/23 07:57:29;;;;;;;27.42;20.33;;;;;;;;;;5060717;28;20048;-72
2022/03/23 07:59:55;;;;;;;27.08;20.33;;;;;;;;;;5062937;28;20049;-72
2022/03/23 08:02:22;;;;;;;31.42;20.38;;;;;;;;;;5061682;28;20048;-72
2022/03/23 08:04:48;;;;;;;29.00;21.13;;;;;;;;;;5062334;28;20037;-72
2022/03/23 08:07:14;;;;;;;25.35;19.70;;;;;;;;;;5060482;28;20651;-72
2022/03/23 08:09:39;;;;;;;26.95;19.55;;;;;;;;;;5062078;28;20047;-72
2022/03/23 08:12:06;;;;;;;28.13;17.50;;;;;;;;;;5061461;28;20113;-71
2022/03/23 08:14:32;;;;;;;23.20;14.60;;;;;;;;;;5062628;28;20040;-71
2022/03/23 08:16:58;;;;;;;19.83;13.25;;;;;;;;;;5061115;28;20050;-71
2022/03/23 08:19:24;;;;;;;19.17;12.93;;;;;;;;;;5061375;28;20681;-71
2022/03/23 08:21:51;;;;;;;21.23;13.48;;;;;;;;;;5060888;28;20037;-71
2022/03/23 08:24:17;;;;;;;20.80;13.95;;;;;;;;;;5062430;28;20124;-71
2022/03/23 08:26:43;;;;;;;21.40;15.15;;;;;;;;;;5061406;28;20119;-71
2022/03/23 08:29:09;;;;;;;19.48;14.35;;;;;;;;;;5062012;28;20475;-72
2022/03/23 08:31:35;;;;;;;24.88;14.68;;;;;;;;;;5056852;28;20088;-71
2022/03/23 08:34:01;;;;;;;22.65;13.98;;;;;;;;;;5041557;28;20049;-71
2022/03/23 08:36:27;;;;;;;18.95;14.13;;;;;;;;;;5042665;28;20040;-72
2022/03/23 08:38:53;;;;;;;21.45;14.68;;;;;;;;;;5042035;28;20068;-72
2022/03/23 08:41:19;;;;;;;22.67;14.35;;;;;;;;;;5027420;28;20044;-72
2022/03/23 08:43:45;;;;;;;19.10;14.00;;;;;;;;;;5062013;28;20036;-72
2022/03/23 08:46:14;;;;;;;20.15;13.77;;;;;;;;;;5061137;28;20052;-71
2022/03/23 08:48:41;;;;;;;18.40;13.27;;;;;;;;;;5062254;28;20545;-71
2022/03/23 08:51:07;;;;;;;19.77;13.57;;;;;;;;;;5061240;28;20048;-72
2022/03/23 08:53:33;;;;;;;18.50;13.35;;;;;;;;;;5060982;28;20055;-72
2022/03/23 08:55:59;;;;;;;19.52;13.07;;;;;;;;;;5060297;28;20087;-71
2022/03/23 08:58:26;;;;;;;17.25;12.27;;;;;;;;;;5059728;28;20680;-72
2022/03/23 09:00:52;;;;;;;17.40;12.70;;;;;;;;;;5045387;28;20044;-72
2022/03/23 09:03:18;;;;;;;16.85;12.15;;;;;;;;;;5060393;28;20045;-71
2022/03/23 09:05:44;;;;;;;16.77;12.52;;;;;;;;;;5062043;28;20071;-71
2022/03/23 09:08:10;;;;;;;15.85;11.57;;;;;;;;;;5062173;28;20613;-72
2022/03/23 09:10:36;;;;;;;16.85;11.80;;;;;;;;;;5061912;28;20072;-72
2022/03/23 09:13:03;;;;;;;15.45;11.15;;;;;;;;;;5060294;28;20032;-72
2022/03/23 09:15:30;;;;;;;17.95;11.90;;;;;;;;;;5045132;28;20041;-71
2022/03/23 09:18:00;;;;;;;16.38;11.68;;;;;;;;;;5059975;28;20047;-71
2022/03/23 09:20:28;;;;;;;16.70;11.35;;;;;;;;;;5044788;28;20041;-71
2022/03/23 09:22:54;;;;;;;15.75;11.30;;;;;;;;;;5060944;28;20052;-72
2022/03/23 09:25:22;;;;;;;16.10;11.52;;;;;;;;;;5061020;28;20051;-72
2022/03/23 09:27:48;;;;;;;16.25;11.23;;;;;;;;;;5060165;28;20043;-71
2022/03/23 09:30:15;;;;;;;17.30;11.35;;;;;;;;;;5062003;28;20540;-71
2022/03/23 09:32:41;;;;;;;15.35;11.02;;;;;;;;;;5043639;28;20123;-72
2022/03/23 09:35:08;;;;;;;17.30;10.70;;;;;;;;;;5061400;28;20684;-71
2022/03/23 09:37:49;;;;;;;16.35;10.20;;;;;;;;;;5060073;28;20072;-72
2022/03/23 09:40:24;;;;;;;17.42;10.85;;;;;;;;;;5047027;28;20056;-71
2022/03/23 09:42:51;;;;;;;16.38;10.55;;;;;;;;;;5048099;28;20123;-71
2022/03/23 09:45:32;;;;;;;18.52;10.70;;;;;;;;;;5065240;28;20045;-72
2022/03/23 09:47:59;;;;;;;21.33;10.18;;;;;;;;;;5063942;28;20587;-71
2022/03/23 09:50:27;;;;;;;14.70;9.85;;;;;;;;;;5065031;28;20051;-71
2022/03/23 09:52:53;;;;;;;18.48;9.77;;;;;;;;;;5063886;28;20040;-71
2022/03/23 09:55:20;;;;;;;14.88;9.57;;;;;;;;;;5065351;28;20120;-72
2022/03/23 09:57:46;;;;;;;14.75;10.25;;;;;;;;;;5047712;28;20119;-71
2022/03/23 10:00:13;;;;;;;15.73;10.10;;;;;;;;;;5048225;28;20569;-71
2022/03/23 10:02:39;;;;;;;18.70;9.98;;;;;;;;;;5063418;28;20602;-71
2022/03/23 10:05:35;;;;;;;18.33;9.63;;;;;;;;;;5047802;28;20052;-71
2022/03/23 10:08:10;;;;;;;17.90;10.13;;;;;;;;;;5047045;28;20509;-72
2022/03/23 10:10:39;;;;;;;19.92;9.98;;;;;;;;;;5064660;28;20039;-71
2022/03/23 10:13:05;;;;;;;22.92;10.77;;;;;;;;;;5063083;28;20040;-71
2022/03/23 10:15:34;;;;;;;16.73;11.45;;;;;;;;;;5064484;28;20052;-72
2022/03/23 10:18:19;;;;;;;16.50;11.68;;;;;;;;;;5045530;28;20051;-71
2022/03/23 10:20:45;;;;;;;19.58;11.52;;;;;;;;;;5063533;28;20048;-71
2022/03/23 10:23:11;;;;;;;23.33;11.73;;;;;;;;;;5062577;28;20036;-72
2022/03/23 10:25:38;;;;;;;19.90;11.68;;;;;;;;;;5046433;28;20044;-71
2022/03/23 10:28:12;;;;;;;17.33;12.05;;;;;;;;;;5043412;28;20051;-71
2022/03/23 10:30:39;;;;;;;16.83;11.65;;;;;;;;;;5064279;28;20060;-72
2022/03/23 10:33:16;;;;;;;16.77;12.27;;;;;;;;;;5063129;28;20052;-72
2022/03/23 10:35:42;;;;;;;17.67;12.13;;;;;;;;;;5065387;28;20456;-72
2022/03/23 10:38:15;;;;;;;16.52;12.27;;;;;;;;;;5063218;28;20049;-72
2022/03/23 10:40:42;;;;;;;19.13;12.53;;;;;;;;;;5047736;28;20043;-72
2022/03/23 10:43:09;;;;;;;18.13;11.50;;;;;;;;;;5062778;28;20106;-72
2022/03/23 10:45:35;;;;;;;13.52;10.20;;;;;;;;;;5064326;28;20077;-72
2022/03/23 10:48:15;;;;;;;14.45;10.57;;;;;;;;;;5046508;28;20072;-71
2022/03/23 10:50:54;;;;;;;18.40;10.23;;;;;;;;;;5063959;28;20052;-72
2022/03/23 10:53:35;;;;;;;16.55;10.43;;;;;;;;;;5062714;28;20068;-72
2022/03/23 10:56:02;;;;;;;16.65;10.52;;;;;;;;;;5063972;28;20048;-72
2022/03/23 10:58:28;;;;;;;16.85;11.02;;;;;;;;;;5061138;28;20052;-71
2022/03/23 11:00:55;;;;;;;14.27;9.50;;;;;;;;;;5061633;28;20041;-72
2022/03/23 11:03:34;;;;;;;13.82;9.48;;;;;;;;;;5044077;28;20115;-72
2022/03/23 11:06:00;;;;;;;15.85;9.25;;;;;;;;;;5062077;28;20106;-71
2022/03/23 11:08:26;;;;;;;12.77;8.85;;;;;;;;;;5060521;28;20049;-71
2022/03/23 11:16:51;;;;;;;13.52;9.23;;;;;;;;;;5059646;28;20542;-71
2022/03/23 11:19:26;;;;;;;13.85;8.32;;;;;;;;;;5060530;28;20040;-70
2022/03/23 11:22:10;;;;;;;14.93;8.20;;;;;;;;;;5060213;28;20110;-71
2022/03/23 11:24:37;;;;;;;16.37;8.60;;;;;;;;;;5046552;28;20047;-71
2022/03/23 11:27:04;;;;;;;13.65;8.20;;;;;;;;;;5061738;28;20536;-71
2022/03/23 11:29:32;;;;;;;14.68;7.57;;;;;;;;;;5064252;28;20339;-72
2022/03/23 11:32:00;;;;;;;13.70;8.18;;;;;;;;;;5061239;28;20471;-71
2022/03/23 11:34:27;;;;;;;15.18;8.30;;;;;;;;;;5062651;28;20113;-72
2022/03/23 11:36:54;;;;;;;13.38;8.60;;;;;;;;;;5054855;28;20754;-71
2022/03/23 11:39:22;;;;;;;18.92;9.80;;;;;;;;;;5041530;28;20124;-73
2022/03/23 11:41:48;;;;;;;17.20;9.55;;;;;;;;;;5047142;28;20110;-72
2022/03/23 11:44:16;;;;;;;21.05;10.20;;;;;;;;;;5046162;28;20105;-72
2022/03/23 11:46:42;;;;;;;22.25;10.80;;;;;;;;;;5060697;28;20573;-72
2022/03/23 11:49:27;;;;;;;16.05;9.65;;;;;;;;;;5062681;28;20661;-71
2022/03/23 11:52:01;;;;;;;19.45;10.85;;;;;;;;;;5061856;28;20566;-72
2022/03/23 11:55:36;;;;;;;18.05;10.13;;;;;;;;;;5063991;28;20458;-72
2022/03/23 11:57:17;;;;;;;14.35;9.48;;;;;;;;;;5061544;28;20404;-72
2022/03/23 11:59:43;;;;;;;15.27;9.27;;;;;;;;;;5045906;28;20044;-72
2022/03/23 12:02:09;;;;;;;19.38;9.27;;;;;;;;;;5060276;28;20044;-71
2022/03/23 12:04:35;;;;;;;16.05;9.73;;;;;;;;;;5062055;28;20053;-72
2022/03/23 12:07:01;;;;;;;14.95;9.23;;;;;;;;;;5061276;28;20078;-71
2022/03/23 12:09:35;;;;;;;15.98;9.20;;;;;;;;;;5061836;28;20040;-71
2022/03/23 12:12:20;;;;;;;19.08;9.15;;;;;;;;;;5061673;28;20127;-71
2022/03/23 12:14:46;;;;;;;16.27;9.27;;;;;;;;;;5044672;28;20101;-71
2022/03/23 12:17:15;;;;;;;14.35;8.35;;;;;;;;;;5060370;28;20036;-71
2022/03/23 12:19:55;;;;;;;15.60;8.15;;;;;;;;;;5062026;28;20048;-71
2022/03/23 12:22:36;;;;;;;14.32;8.18;;;;;;;;;;5061447;28;20036;-71
2022/03/23 12:25:26;;;;;;;14.35;7.60;;;;;;;;;;5062343;28;20041;-71
2022/03/23 12:27:55;;;;;;;12.48;7.72;;;;;;;;;;5053923;28;20512;-71
2022/03/23 12:30:27;;;;;;;15.15;7.40;;;;;;;;;;5060250;28;20044;-71
2022/03/23 12:32:55;;;;;;;15.23;8.23;;;;;;;;;;5059723;28;20052;-71
2022/03/23 12:35:36;;;;;;;14.10;8.10;;;;;;;;;;5061650;28;20083;-71
2022/03/23 12:38:03;;;;;;;12.05;6.88;;;;;;;;;;5060580;28;20734;-71
2022/03/23 12:40:42;;;;;;;10.35;6.75;;;;;;;;;;5062266;28;20040;-71
2022/03/23 12:43:08;;;;;;;11.93;7.15;;;;;;;;;;5060444;28;20037;-71
2022/03/23 12:45:39;;;;;;;15.77;7.40;;;;;;;;;;5061815;28;20044;-71
2022/03/23 12:59:35;;;;;;;13.73;6.72;;;;;;;;;;5061637;28;20158;-71
2022/03/23 13:02:31;;;;;;;10.90;6.00;;;;;;;;;;5060818;28;20040;-71
2022/03/23 13:04:57;;;;;;;10.18;5.95;;;;;;;;;;5036691;28;20044;-71
2022/03/23 13:07:29;;;;;;;10.30;5.60;;;;;;;;;;5060608;28;20036;-72
2022/03/23 13:09:56;;;;;;;15.40;5.80;;;;;;;;;;5044195;28;20107;-71
2022/03/23 13:12:25;;;;;;;14.55;6.03;;;;;;;;;;5062256;28;20071;-71
2022/03/23 13:14:52;;;;;;;12.55;5.90;;;;;;;;;;5048006;28;20033;-71
2022/03/23 13:17:18;;;;;;;11.60;5.55;;;;;;;;;;5047545;28;20040;-71
2022/03/23 13:19:44;;;;;;;9.82;4.85;;;;;;;;;;5064778;28;20663;-71
2022/03/23 13:22:10;;;;;;;11.80;5.60;;;;;;;;;;5064082;28;20041;-71
2022/03/23 13:24:37;;;;;;;11.85;5.80;;;;;;;;;;5049151;28;20039;-71
2022/03/23 13:27:21;;;;;;;9.48;5.13;;;;;;;;;;5073257;28;20046;-71
2022/03/23 13:29:58;;;;;;;11.27;5.22;;;;;;;;;;5072024;28;20044;-71
2022/03/23 13:32:31;;;;;;;11.35;5.57;;;;;;;;;;5056216;28;20239;-71
2022/03/23 13:34:57;;;;;;;11.30;5.30;;;;;;;;;;5073932;28;20074;-71
2022/03/23 13:37:23;;;;;;;9.50;4.90;;;;;;;;;;5050632;28;20504;-71
2022/03/23 13:39:49;;;;;;;12.35;5.18;;;;;;;;;;5034857;28;20048;-71
2022/03/23 13:43:21;;;;;;;11.27;4.65;;;;;;;;;;5054226;28;20036;-71
2022/03/23 13:45:16;;;;;;;12.70;5.13;;;;;;;;;;5061133;28;20186;-71
2022/03/23 13:47:43;;;;;;;9.98;5.53;;;;;;;;;;5063762;28;20131;-71
2022/03/23 13:50:13;;;;;;;9.82;5.07;;;;;;;;;;5048335;28;20071;-71
2022/03/23 13:52:39;;;;;;;9.43;4.72;;;;;;;;;;5047875;28;20097;-71
2022/03/23 13:55:06;;;;;;;10.18;5.03;;;;;;;;;;5065185;28;20041;-71
2022/03/23 13:57:33;;;;;;;8.55;4.45;;;;;;;;;;5064126;28;20044;-71
2022/03/23 13:59:59;;;;;;;11.27;5.25;;;;;;;;;;5064955;28;20040;-71
2022/03/23 14:02:26;;;;;;;11.77;4.55;;;;;;;;;;5062953;28;20040;-70
2022/03/23 14:04:52;;;;;;;8.85;4.80;;;;;;;;;;5064107;28;20040;-71
2022/03/23 14:07:18;;;;;;;9.90;4.47;;;;;;;;;;5063508;28;20044;-71
2022/03/23 14:09:45;;;;;;;11.32;4.40;;;;;;;;;;5064730;28;20089;-71
2022/03/23 14:12:12;;;;;;;13.45;4.60;;;;;;;;;;5063313;28;20048;-71
2022/03/23 14:14:40;;;;;;;10.52;4.40;;;;;;;;;;5064951;28;20647;-71
2022/03/23 14:17:13;;;;;;;8.55;4.38;;;;;;;;;;5062410;28;20036;-70
2022/03/23 14:19:44;;;;;;;10.32;4.72;;;;;;;;;;5064106;28;20048;-71
2022/03/23 14:22:11;;;;;;;8.90;4.25;;;;;;;;;;5063277;28;20354;-71
2022/03/23 14:24:38;;;;;;;11.85;4.82;;;;;;;;;;5062631;28;20036;-71
2022/03/23 14:27:16;;;;;;;8.27;3.70;;;;;;;;;;5063133;28;20032;-70
2022/03/23 14:29:53;;;;;;;9.65;4.30;;;;;;;;;;5064362;28;20114;-70
2022/03/23 14:32:26;;;;;;;10.95;4.22;;;;;;;;;;5052208;28;20079;-71
2022/03/23 14:34:52;;;;;;;9.05;4.38;;;;;;;;;;5044000;28;20049;-71
2022/03/23 14:37:19;;;;;;;10.13;4.50;;;;;;;;;;5054717;28;20569;-71
2022/03/23 14:39:46;;;;;;;8.20;4.30;;;;;;;;;;5064129;28;20052;-71
2022/03/23 14:42:13;;;;;;;7.63;4.07;;;;;;;;;;5063244;28;20048;-71
2022/03/23 14:44:45;;;;;;;9.73;3.83;;;;;;;;;;5064090;28;20143;-71
2022/03/23 14:47:11;;;;;;;10.48;4.28;;;;;;;;;;5062785;28;20044;-71
2022/03/23 14:49:37;;;;;;;10.80;4.30;;;;;;;;;;5053931;28;20049;-71
2022/03/23 14:52:05;;;;;;;8.30;4.45;;;;;;;;;;5045451;28;20032;-71
2022/03/23 14:54:31;;;;;;;11.50;4.53;;;;;;;;;;5047171;28;20051;-70